Time;durP1;ratioP1;P1;durP2;ratioP2;P2;SDS_P1;SDS_P2;PMS_P1;PMS_P2;Temp;Humidity;BMP_temperature;BMP_pressure;BME280_temperature;BME280_humidity;BME280_pressure;Samples;Min_cycle;Max_cycle;Signal;HPM_P1;HPM_P2
2023/06/18 00:01:58;;;;;;;;;;;;;;;22.72;57.46;97680.47;5143474;27;20015;-74
2023/06/18 00:04:25;;;;;;;;;;;;;;;23.19;55.62;97677.84;5145915;27;20004;-73
2023/06/18 00:06:51;;;;;;;;;;;;;;;23.45;54.92;97675.44;5145647;27;19923;-73
2023/06/18 00:09:18;;;;;;;;;;;;;;;23.49;54.44;97681.75;5142781;27;19942;-73
2023/06/18 00:11:44;;;;;;;;;;;;;;;23.51;54.45;97678.69;5142742;27;19924;-74
2023/06/18 00:14:12;;;;;;;;;;;;;;;23.56;54.06;97690.09;5145491;27;19931;-73
2023/06/18 00:16:39;;;;;;;;;;;;;;;23.24;55.10;97698.59;5146210;27;19959;-74
2023/06/18 00:19:05;;;;;;;;;;;;;;;23.23;54.80;97686.91;5143672;27;19924;-74
2023/06/18 00:21:31;;;;;;;;;;;;;;;23.44;54.31;97686.69;5141657;27;19926;-73
2023/06/18 00:23:58;;;;;;;;;;;;;;;23.57;54.00;97688.97;5143319;27;19959;-73
2023/06/18 00:26:25;;;;;;;;;;;;;;;23.62;54.02;97682.44;5145708;27;19923;-74
2023/06/18 00:28:51;;;;;;;;;;;;;;;23.56;54.00;97689.31;5145890;27;19926;-73
2023/06/18 00:31:20;;;;;;;;;;;;;;;23.57;53.67;97688.97;5142321;27;19978;-73
2023/06/18 00:33:46;;;;;;;;;;;;;;;23.59;54.05;97686.69;5142397;27;19975;-72
2023/06/18 00:36:12;;;;;;;;;;;;;;;23.63;53.70;97686.75;5145600;27;19939;-73
2023/06/18 00:38:45;;;;;;;;;;;;;;;23.65;53.62;97688.00;5145547;27;19923;-74
2023/06/18 00:41:11;;;;;;;;;;;;;;;23.69;53.64;97692.72;5142301;27;19950;-73
2023/06/18 00:43:38;;;;;;;;;;;;;;;23.70;53.46;97697.84;5141867;27;19998;-74
2023/06/18 00:46:05;;;;;;;;;;;;;;;23.63;53.69;97693.00;5143831;27;19923;-75
2023/06/18 00:48:35;;;;;;;;;;;;;;;22.90;56.01;97700.06;5145079;27;20022;-74
2023/06/18 00:51:03;;;;;;;;;;;;;;;22.58;56.54;97699.94;5143074;27;20022;-73
2023/06/18 00:53:30;;;;;;;;;;;;;;;22.80;56.29;97700.53;5141663;27;19924;-73
2023/06/18 00:55:57;;;;;;;;;;;;;;;22.86;56.08;97693.72;5142409;27;19923;-74
2023/06/18 00:58:23;;;;;;;;;;;;;;;22.76;56.59;97695.00;5145228;27;19949;-73
2023/06/18 01:00:50;;;;;;;;;;;;;;;23.16;55.56;97691.38;5126967;27;19923;-73
2023/06/18 01:03:17;;;;;;;;;;;;;;;23.23;55.43;97686.91;5133215;27;19923;-73
2023/06/18 01:05:46;;;;;;;;;;;;;;;23.34;55.13;97687.97;5141810;27;19934;-74
2023/06/18 01:08:13;;;;;;;;;;;;;;;23.36;55.24;97696.59;5144918;27;19945;-74
2023/06/18 01:10:40;;;;;;;;;;;;;;;23.00;55.65;97685.91;5144622;27;19958;-73
2023/06/18 01:13:09;;;;;;;;;;;;;;;22.51;56.88;97693.47;5141997;27;19930;-74
2023/06/18 01:15:35;;;;;;;;;;;;;;;22.09;58.28;97693.03;5141048;27;19924;-73
2023/06/18 01:18:06;;;;;;;;;;;;;;;22.36;57.77;97692.28;5142358;27;19940;-74
2023/06/18 01:20:40;;;;;;;;;;;;;;;22.25;58.54;97698.56;5144533;27;19928;-74
2023/06/18 01:23:12;;;;;;;;;;;;;;;22.47;57.69;97687.91;5142147;27;19930;-74
2023/06/18 01:25:39;;;;;;;;;;;;;;;22.41;58.50;97692.03;5140910;27;19965;-73
2023/06/18 01:28:07;;;;;;;;;;;;;;;22.24;59.05;97695.03;5142999;27;19920;-73
2023/06/18 01:30:36;;;;;;;;;;;;;;;21.60;61.82;97697.66;5144407;27;19950;-72
2023/06/18 01:33:03;;;;;;;;;;;;;;;20.85;66.09;97698.97;5142587;27;20415;-73
2023/06/18 01:35:29;;;;;;;;;;;;;;;20.83;66.35;97707.44;5141026;27;20010;-74
2023/06/18 01:38:08;;;;;;;;;;;;;;;21.58;63.26;97712.72;5141587;27;19984;-73
2023/06/18 01:40:41;;;;;;;;;;;;;;;21.40;63.90;97704.78;5144295;27;19930;-73
2023/06/18 01:43:11;;;;;;;;;;;;;;;21.55;63.76;97708.75;5141656;27;19930;-73
2023/06/18 01:45:42;;;;;;;;;;;;;;;21.49;64.75;97705.47;5140597;27;19946;-73
2023/06/18 01:48:09;;;;;;;;;;;;;;;21.34;64.39;97710.78;5125371;28;19931;-74
2023/06/18 01:50:36;;;;;;;;;;;;;;;20.92;66.65;97704.66;5144062;27;19923;-73
2023/06/18 01:53:03;;;;;;;;;;;;;;;21.02;66.81;97709.66;5142214;27;19928;-74
2023/06/18 01:55:33;;;;;;;;;;;;;;;22.16;61.93;97706.81;5122347;28;19928;-73
2023/06/18 01:58:01;;;;;;;;;;;;;;;22.39;60.86;97707.91;5141781;27;19951;-74
2023/06/18 02:00:27;;;;;;;;;;;;;;;22.57;60.17;97703.78;5143933;27;19962;-73
2023/06/18 02:02:53;;;;;;;;;;;;;;;22.68;59.69;97706.03;5143867;28;19934;-73
2023/06/18 02:05:20;;;;;;;;;;;;;;;22.65;59.39;97710.25;5141316;28;19931;-73
2023/06/18 02:07:46;;;;;;;;;;;;;;;22.59;59.64;97706.94;5140876;28;19945;-72
2023/06/18 02:10:12;;;;;;;;;;;;;;;22.59;59.48;97712.38;5143504;28;19965;-74
2023/06/18 02:12:39;;;;;;;;;;;;;;;22.48;59.70;97715.94;5143826;28;19958;-74
2023/06/18 02:15:07;;;;;;;;;;;;;;;22.52;59.81;97716.84;5123235;28;19923;-73
2023/06/18 02:17:34;;;;;;;;;;;;;;;22.21;60.87;97712.03;5140185;28;19927;-73
2023/06/18 02:20:00;;;;;;;;;;;;;;;21.35;64.32;97724.00;5141294;28;19951;-74
2023/06/18 02:22:27;;;;;;;;;;;;;;;20.82;68.79;97715.94;5143683;28;20018;-73
2023/06/18 02:24:53;;;;;;;;;;;;;;;21.24;66.62;97717.44;5143173;28;19928;-73
2023/06/18 02:27:20;;;;;;;;;;;;;;;21.07;66.71;97724.94;5139977;28;19924;-73
2023/06/18 02:29:47;;;;;;;;;;;;;;;20.86;67.94;97727.69;5140056;28;19919;-73
2023/06/18 02:32:15;;;;;;;;;;;;;;;20.41;70.54;97727.63;5143368;28;19969;-73
2023/06/18 02:34:41;;;;;;;;;;;;;;;21.40;66.59;97723.00;5143804;28;19920;-72
2023/06/18 02:37:08;;;;;;;;;;;;;;;21.18;65.57;97723.41;5142310;28;19931;-72
2023/06/18 02:39:34;;;;;;;;;;;;;;;21.08;65.32;97721.88;5143061;28;19928;-73
2023/06/18 02:42:01;;;;;;;;;;;;;;;20.67;66.47;97714.66;5146184;28;19926;-73
2023/06/18 02:44:28;;;;;;;;;;;;;;;20.29;69.17;97724.84;5150346;27;19945;-72
2023/06/18 02:46:54;;;;;;;;;;;;;;;20.36;70.40;97727.81;5152414;27;19927;-72
2023/06/18 02:49:22;;;;;;;;;;;;;;;20.23;70.00;97721.50;5150974;27;19915;-72
2023/06/18 02:51:50;;;;;;;;;;;;;;;20.84;68.08;97732.66;5151448;27;19944;-73
2023/06/18 02:54:16;;;;;;;;;;;;;;;21.53;64.64;97725.41;5143540;27;19933;-73
2023/06/18 02:56:43;;;;;;;;;;;;;;;21.85;62.51;97725.66;5133805;28;19918;-72
2023/06/18 02:59:09;;;;;;;;;;;;;;;22.04;61.39;97718.53;5154051;27;19923;-73
2023/06/18 03:01:37;;;;;;;;;;;;;;;21.44;62.45;97726.66;5154079;27;19927;-73
2023/06/18 03:04:03;;;;;;;;;;;;;;;19.95;68.50;97725.81;5150035;27;19937;-72
2023/06/18 03:06:32;;;;;;;;;;;;;;;18.87;78.46;97723.66;5145661;27;19945;-73
2023/06/18 03:08:58;;;;;;;;;;;;;;;18.27;87.10;97727.13;5146440;27;19946;-72
2023/06/18 03:11:26;;;;;;;;;;;;;;;18.99;84.34;97731.09;5148265;27;19927;-73
2023/06/18 03:13:52;;;;;;;;;;;;;;;19.63;79.92;97734.59;5148432;27;19930;-74
2023/06/18 03:16:19;;;;;;;;;;;;;;;19.68;78.20;97731.72;5144753;27;19928;-72
2023/06/18 03:18:45;;;;;;;;;;;;;;;19.22;81.38;97738.69;5144413;27;19934;-73
2023/06/18 03:21:12;;;;;;;;;;;;;;;18.55;86.78;97740.38;5151162;27;20054;-72
2023/06/18 03:23:39;;;;;;;;;;;;;;;18.06;92.71;97744.28;5144619;27;19935;-73
2023/06/18 03:26:06;;;;;;;;;;;;;;;17.69;96.58;97751.00;5145962;27;19923;-73
2023/06/18 03:28:33;;;;;;;;;;;;;;;17.77;99.41;97744.81;5146738;27;19969;-73
2023/06/18 03:31:00;;;;;;;;;;;;;;;19.14;86.38;97738.72;5145141;27;19931;-72
2023/06/18 03:33:29;;;;;;;;;;;;;;;19.00;85.31;97738.13;5124740;28;19946;-72
2023/06/18 03:35:59;;;;;;;;;;;;;;;19.29;83.81;97741.69;5143632;27;19930;-73
2023/06/18 03:38:25;;;;;;;;;;;;;;;19.78;80.36;97734.84;5146198;27;19947;-72
2023/06/18 03:40:53;;;;;;;;;;;;;;;19.94;77.22;97732.34;5146102;27;19930;-73
2023/06/18 03:43:19;;;;;;;;;;;;;;;20.23;75.22;97736.97;5142615;27;19927;-73
2023/06/18 03:45:46;;;;;;;;;;;;;;;20.49;72.47;97734.13;5142517;27;19964;-71
2023/06/18 03:48:12;;;;;;;;;;;;;;;19.96;73.13;97735.53;5145798;27;19923;-73
2023/06/18 03:50:39;;;;;;;;;;;;;;;19.64;75.10;97744.31;5146027;27;19963;-73
2023/06/18 03:53:06;;;;;;;;;;;;;;;19.47;77.57;97745.16;5143736;27;19945;-73
2023/06/18 03:55:32;;;;;;;;;;;;;;;19.03;80.55;97743.69;5142094;27;19966;-72
2023/06/18 03:58:00;;;;;;;;;;;;;;;18.13;88.57;97742.72;5143197;27;19920;-73
2023/06/18 04:00:26;;;;;;;;;;;;;;;17.71;93.34;97744.19;5145865;27;19920;-72
2023/06/18 04:02:53;;;;;;;;;;;;;;;18.99;86.85;97742.72;5145436;27;19931;-72
2023/06/18 04:05:19;;;;;;;;;;;;;;;20.26;75.36;97733.63;5141998;27;19927;-72
2023/06/18 04:07:45;;;;;;;;;;;;;;;20.40;72.71;97745.81;5142189;27;19924;-72
2023/06/18 04:10:12;;;;;;;;;;;;;;;20.65;71.26;97737.78;5144975;27;19920;-73
2023/06/18 04:12:38;;;;;;;;;;;;;;;20.42;71.18;97731.94;5145398;27;19969;-72
2023/06/18 04:15:06;;;;;;;;;;;;;;;20.97;68.20;97739.75;5125243;27;19924;-73
2023/06/18 04:17:38;;;;;;;;;;;;;;;21.17;66.38;97746.28;5142098;27;19949;-73
2023/06/18 04:20:06;;;;;;;;;;;;;;;21.23;65.98;97740.28;5143679;27;19977;-73
2023/06/18 04:22:32;;;;;;;;;;;;;;;21.37;64.72;97746.22;5145511;27;19965;-72
2023/06/18 04:24:58;;;;;;;;;;;;;;;21.40;64.55;97744.75;5144207;27;19923;-73
2023/06/18 04:27:25;;;;;;;;;;;;;;;21.13;65.31;97740.72;5141987;27;20033;-73
2023/06/18 04:29:51;;;;;;;;;;;;;;;20.67;66.79;97744.50;5141980;27;19923;-72
2023/06/18 04:32:19;;;;;;;;;;;;;;;20.58;66.98;97749.16;5145066;27;20029;-73
2023/06/18 04:34:45;;;;;;;;;;;;;;;21.00;65.98;97755.38;5145297;27;19923;-73
2023/06/18 04:37:12;;;;;;;;;;;;;;;21.25;65.00;97746.19;5141931;27;19924;-73
2023/06/18 04:39:38;;;;;;;;;;;;;;;21.27;64.82;97749.34;5141962;27;19924;-73
2023/06/18 04:42:04;;;;;;;;;;;;;;;20.64;67.23;97747.06;5143574;27;20414;-72
2023/06/18 04:44:31;;;;;;;;;;;;;;;20.41;68.34;97744.69;5144989;27;19941;-72
2023/06/18 04:46:57;;;;;;;;;;;;;;;19.49;75.24;97742.94;5143572;27;19958;-72
2023/06/18 04:49:25;;;;;;;;;;;;;;;19.55;77.58;97746.25;5141395;27;19924;-73
2023/06/18 04:51:51;;;;;;;;;;;;;;;19.75;75.08;97748.22;5141100;27;20007;-73
2023/06/18 04:54:18;;;;;;;;;;;;;;;20.40;72.12;97748.50;5144822;27;19958;-73
2023/06/18 04:56:45;;;;;;;;;;;;;;;20.95;68.94;97761.00;5144691;27;19923;-73
2023/06/18 04:59:11;;;;;;;;;;;;;;;21.09;67.70;97752.59;5123465;27;19936;-73
2023/06/18 05:01:37;;;;;;;;;;;;;;;21.16;66.98;97759.06;5141120;27;20367;-72
2023/06/18 05:04:05;;;;;;;;;;;;;;;21.17;66.58;97752.50;5143168;27;19967;-72
2023/06/18 05:06:32;;;;;;;;;;;;;;;20.93;67.22;97757.81;5144557;27;19979;-74
2023/06/18 05:08:59;;;;;;;;;;;;;;;21.11;66.87;97753.84;5143073;27;19983;-72
2023/06/18 05:11:26;;;;;;;;;;;;;;;20.85;67.65;97755.97;5140911;27;19931;-73
2023/06/18 05:13:52;;;;;;;;;;;;;;;20.84;67.73;97759.81;5141297;27;19924;-72
2023/06/18 05:16:19;;;;;;;;;;;;;;;21.01;67.50;97762.38;5144689;27;19927;-73
2023/06/18 05:18:45;;;;;;;;;;;;;;;21.21;67.09;97766.19;5144425;27;19938;-73
2023/06/18 05:21:11;;;;;;;;;;;;;;;21.30;66.74;97761.47;5123199;27;19950;-73
2023/06/18 05:23:39;;;;;;;;;;;;;;;20.75;69.18;97768.03;5141340;27;19966;-73
2023/06/18 05:26:05;;;;;;;;;;;;;;;20.60;70.13;97767.84;5143057;27;19924;-73
2023/06/18 05:28:32;;;;;;;;;;;;;;;21.01;68.63;97775.97;5126281;27;19951;-73
2023/06/18 05:30:58;;;;;;;;;;;;;;;21.39;68.08;97778.47;5124751;27;19957;-72
2023/06/18 05:33:25;;;;;;;;;;;;;;;21.44;68.93;97775.56;5122789;28;19963;-73
2023/06/18 05:35:51;;;;;;;;;;;;;;;21.30;68.92;97775.84;5140193;27;20011;-72
2023/06/18 05:38:17;;;;;;;;;;;;;;;21.32;70.12;97780.97;5145958;27;19959;-73
2023/06/18 05:40:45;;;;;;;;;;;;;;;21.45;69.00;97777.13;5141179;27;19924;-73
2023/06/18 05:43:11;;;;;;;;;;;;;;;21.45;69.57;97785.28;5143991;27;19935;-72
2023/06/18 05:45:38;;;;;;;;;;;;;;;21.43;69.82;97777.47;5144474;27;20151;-73
2023/06/18 05:48:07;;;;;;;;;;;;;;;21.61;69.76;97780.78;5142238;27;19923;-73
2023/06/18 05:50:34;;;;;;;;;;;;;;;21.60;70.63;97778.41;5144614;27;19924;-73
2023/06/18 05:53:00;;;;;;;;;;;;;;;21.65;69.75;97780.91;5142533;27;20038;-73
2023/06/18 05:55:27;;;;;;;;;;;;;;;21.69;71.16;97781.81;5140508;27;19951;-73
2023/06/18 05:57:55;;;;;;;;;;;;;;;21.46;72.49;97790.38;5140728;27;20597;-73
2023/06/18 06:00:21;;;;;;;;;;;;;;;21.26;74.74;97787.72;5143788;27;20509;-72
2023/06/18 06:02:47;;;;;;;;;;;;;;;20.79;79.87;97779.81;5143670;27;19924;-72
2023/06/18 06:05:14;;;;;;;;;;;;;;;20.52;84.87;97776.84;5140571;28;20018;-73
2023/06/18 06:07:40;;;;;;;;;;;;;;;20.28;88.72;97777.47;5123092;28;19923;-73
2023/06/18 06:10:07;;;;;;;;;;;;;;;20.21;90.48;97783.38;5142626;28;19923;-73
2023/06/18 06:12:33;;;;;;;;;;;;;;;20.51;88.81;97781.47;5144073;28;19979;-73
2023/06/18 06:15:01;;;;;;;;;;;;;;;21.07;83.20;97777.34;5142332;28;19990;-74
2023/06/18 06:17:29;;;;;;;;;;;;;;;21.39;82.16;97779.25;5140212;28;19924;-73
2023/06/18 06:19:55;;;;;;;;;;;;;;;21.63;78.96;97777.75;5141876;27;19927;-72
2023/06/18 06:22:21;;;;;;;;;;;;;;;21.77;79.41;97780.91;5148062;27;19919;-74
2023/06/18 06:24:48;;;;;;;;;;;;;;;21.45;80.35;97788.00;5148729;27;19927;-73
2023/06/18 06:27:14;;;;;;;;;;;;;;;21.75;77.69;97784.00;5145335;27;19923;-73
2023/06/18 06:29:41;;;;;;;;;;;;;;;21.87;79.13;97783.19;5144898;27;20577;-72
2023/06/18 06:32:08;;;;;;;;;;;;;;;21.72;79.81;97790.09;5147067;27;20019;-73
2023/06/18 06:34:35;;;;;;;;;;;;;;;21.74;80.50;97787.03;5148356;27;19923;-73
2023/06/18 06:37:01;;;;;;;;;;;;;;;21.65;82.12;97789.06;5146813;27;19926;-72
2023/06/18 06:39:28;;;;;;;;;;;;;;;21.51;81.63;97784.72;5145764;27;19996;-72
2023/06/18 06:41:54;;;;;;;;;;;;;;;21.47;83.99;97789.25;5145719;27;19996;-72
2023/06/18 06:44:21;;;;;;;;;;;;;;;21.47;84.02;97797.41;5147771;27;19954;-73
2023/06/18 06:46:47;;;;;;;;;;;;;;;21.33;86.65;97798.81;5148238;27;19951;-74
2023/06/18 06:49:15;;;;;;;;;;;;;;;21.23;87.96;97794.59;5144831;27;19951;-73
2023/06/18 06:51:41;;;;;;;;;;;;;;;21.75;82.75;97796.78;5145674;27;19983;-74
2023/06/18 06:54:09;;;;;;;;;;;;;;;21.76;82.38;97792.91;5147240;27;19924;-72
2023/06/18 06:56:35;;;;;;;;;;;;;;;21.63;83.55;97789.41;5149252;27;19941;-74
2023/06/18 06:59:02;;;;;;;;;;;;;;;21.40;86.79;97791.72;5147261;27;19930;-74
2023/06/18 07:01:28;;;;;;;;;;;;;;;21.42;86.85;97800.31;5143666;27;19931;-74
2023/06/18 07:03:55;;;;;;;;;;;;;;;21.43;87.04;97785.63;5145480;27;19974;-72
2023/06/18 07:06:22;;;;;;;;;;;;;;;21.56;85.88;97789.16;5148836;27;19920;-73
2023/06/18 07:08:51;;;;;;;;;;;;;;;21.76;82.66;97784.75;5153662;27;20000;-72
2023/06/18 07:11:18;;;;;;;;;;;;;;;21.88;81.40;97787.50;5142878;27;19940;-72
2023/06/18 07:13:44;;;;;;;;;;;;;;;21.88;82.01;97788.31;5150740;27;19951;-72
2023/06/18 07:16:10;;;;;;;;;;;;;;;21.91;81.78;97784.91;5153037;27;19950;-73
2023/06/18 07:18:37;;;;;;;;;;;;;;;21.72;83.28;97781.16;5154024;27;19919;-73
2023/06/18 07:21:03;;;;;;;;;;;;;;;21.64;85.27;97785.53;5151998;27;19954;-73
2023/06/18 07:23:31;;;;;;;;;;;;;;;21.68;86.27;97781.03;5147617;27;19983;-73
2023/06/18 07:25:57;;;;;;;;;;;;;;;21.72;83.97;97787.38;5149011;27;19995;-73
2023/06/18 07:28:23;;;;;;;;;;;;;;;21.67;83.39;97789.50;5150730;27;19924;-73
2023/06/18 07:30:50;;;;;;;;;;;;;;;21.64;84.34;97788.25;5149170;27;19991;-73
2023/06/18 07:33:16;;;;;;;;;;;;;;;21.82;82.86;97781.47;5136572;27;19995;-72
2023/06/18 07:35:42;;;;;;;;;;;;;;;22.46;79.29;97772.63;5143591;27;19955;-73
2023/06/18 07:38:09;;;;;;;;;;;;;;;22.39;77.39;97773.22;5146180;27;19928;-72
2023/06/18 07:40:38;;;;;;;;;;;;;;;22.36;76.34;97782.06;5148707;27;19924;-75
2023/06/18 07:43:05;;;;;;;;;;;;;;;22.33;75.51;97774.59;5147505;27;19923;-74
2023/06/18 07:45:31;;;;;;;;;;;;;;;22.44;75.12;97786.56;5145016;27;19959;-73
2023/06/18 07:47:57;;;;;;;;;;;;;;;22.68;73.58;97779.53;5145344;27;19994;-73
2023/06/18 07:50:24;;;;;;;;;;;;;;;22.78;73.26;97782.56;5129598;27;19938;-74
2023/06/18 07:52:50;;;;;;;;;;;;;;;22.69;73.89;97776.47;5146883;27;19939;-73
2023/06/18 07:55:17;;;;;;;;;;;;;;;22.69;73.94;97781.09;5134745;27;20026;-72
2023/06/18 07:57:44;;;;;;;;;;;;;;;22.62;75.34;97780.88;5143253;27;19985;-73
2023/06/18 08:00:11;;;;;;;;;;;;;;;22.75;74.10;97771.56;5145685;27;19938;-73
2023/06/18 08:02:38;;;;;;;;;;;;;;;22.88;72.72;97773.09;5146403;27;19960;-73
2023/06/18 08:05:05;;;;;;;;;;;;;;;22.88;72.55;97773.09;5143962;27;19959;-74
2023/06/18 08:07:31;;;;;;;;;;;;;;;22.84;74.30;97773.00;5142574;27;19919;-73
2023/06/18 08:09:57;;;;;;;;;;;;;;;22.72;76.05;97773.03;5143115;27;19955;-73
2023/06/18 08:12:25;;;;;;;;;;;;;;;22.75;75.42;97772.34;5127504;27;19955;-72
2023/06/18 08:14:52;;;;;;;;;;;;;;;22.83;75.02;97771.44;5146032;27;19941;-73
2023/06/18 08:17:19;;;;;;;;;;;;;;;22.91;74.64;97775.13;5134551;27;20000;-73
2023/06/18 08:19:46;;;;;;;;;;;;;;;23.07;72.45;97765.09;5142366;27;19924;-73
2023/06/18 08:22:12;;;;;;;;;;;;;;;23.09;69.82;97768.25;5145578;27;19923;-73
2023/06/18 08:24:39;;;;;;;;;;;;;;;23.21;69.86;97760.00;5145834;27;19920;-73
2023/06/18 08:27:05;;;;;;;;;;;;;;;23.47;69.21;97765.03;5143482;27;19923;-73
2023/06/18 08:29:32;;;;;;;;;;;;;;;23.67;67.56;97760.47;5141888;27;19973;-72
2023/06/18 08:32:04;;;;;;;;;;;;;;;23.54;68.35;97762.47;5142821;27;19924;-73
2023/06/18 08:34:30;;;;;;;;;;;;;;;23.52;67.69;97760.09;5145398;27;19920;-74
2023/06/18 08:36:57;;;;;;;;;;;;;;;23.69;67.61;97755.44;5144379;27;19991;-72
2023/06/18 08:39:23;;;;;;;;;;;;;;;23.71;68.44;97756.66;5141772;27;19946;-73
2023/06/18 08:41:50;;;;;;;;;;;;;;;23.71;68.46;97753.94;5141472;27;19962;-73
2023/06/18 08:44:16;;;;;;;;;;;;;;;23.98;68.03;97758.53;5145020;27;19962;-73
2023/06/18 08:46:43;;;;;;;;;;;;;;;24.08;68.67;97766.16;5145152;27;19963;-73
2023/06/18 08:49:10;;;;;;;;;;;;;;;24.22;69.22;97754.81;5142474;27;19958;-73
2023/06/18 08:51:38;;;;;;;;;;;;;;;24.17;67.04;97755.06;5141514;27;19962;-73
2023/06/18 08:54:06;;;;;;;;;;;;;;;24.13;67.21;97752.28;5143390;27;19935;-73
2023/06/18 08:56:33;;;;;;;;;;;;;;;24.29;66.72;97760.44;5145273;27;19927;-73
2023/06/18 08:59:00;;;;;;;;;;;;;;;24.26;66.61;97749.44;5143979;27;19959;-72
2023/06/18 09:01:26;;;;;;;;;;;;;;;24.06;65.90;97762.19;5142113;27;19920;-72
2023/06/18 09:03:54;;;;;;;;;;;;;;;24.21;66.18;97749.69;5141627;27;19950;-72
2023/06/18 09:06:23;;;;;;;;;;;;;;;24.34;64.56;97753.91;5144875;27;19923;-73
2023/06/18 09:08:49;;;;;;;;;;;;;;;24.20;63.84;97756.31;5144901;27;19998;-73
2023/06/18 09:11:15;;;;;;;;;;;;;;;24.20;63.34;97750.84;5141233;27;19985;-73
2023/06/18 09:13:42;;;;;;;;;;;;;;;24.39;63.06;97732.56;5141366;27;19947;-73
2023/06/18 09:16:09;;;;;;;;;;;;;;;24.66;62.34;97739.78;5143534;27;19930;-73
2023/06/18 09:18:35;;;;;;;;;;;;;;;24.67;62.92;97735.91;5144947;27;19923;-73
2023/06/18 09:21:03;;;;;;;;;;;;;;;24.90;61.73;97735.22;5142674;27;19946;-73
2023/06/18 09:23:31;;;;;;;;;;;;;;;24.99;59.92;97724.84;5122591;28;19991;-73
2023/06/18 09:25:58;;;;;;;;;;;;;;;24.97;59.27;97732.63;5141315;27;19930;-73
2023/06/18 09:28:25;;;;;;;;;;;;;;;25.07;58.83;97734.75;5144246;27;19987;-74
2023/06/18 09:30:52;;;;;;;;;;;;;;;25.41;55.94;97733.81;5144210;27;19924;-73
2023/06/18 09:33:28;;;;;;;;;;;;;;;25.30;57.83;97738.31;5140674;27;19930;-73
2023/06/18 09:36:01;;;;;;;;;;;;;;;25.49;56.55;97735.56;5140778;27;19924;-74
2023/06/18 09:38:39;;;;;;;;;;;;;;;25.54;54.93;97732.53;5150030;27;19927;-73
2023/06/18 09:41:10;;;;;;;;;;;;;;;25.42;52.44;97737.34;5148959;27;19911;-73
2023/06/18 09:43:37;;;;;;;;;;;;;;;25.38;51.40;97740.03;5148235;27;19912;-73
2023/06/18 09:46:04;;;;;;;;;;;;;;;25.21;50.83;97741.28;5149529;27;19912;-73
2023/06/18 09:48:31;;;;;;;;;;;;;;;25.19;52.15;97735.38;5151583;27;19982;-73
2023/06/18 09:50:57;;;;;;;;;;;;;;;25.40;51.52;97737.72;5150360;27;19979;-73
2023/06/18 09:53:24;;;;;;;;;;;;;;;25.39;50.52;97735.34;5144349;27;19955;-73
2023/06/18 09:55:51;;;;;;;;;;;;;;;25.50;48.74;97737.13;5140947;27;19958;-74
2023/06/18 09:58:18;;;;;;;;;;;;;;;25.68;49.78;97732.78;5132779;27;19928;-73
2023/06/18 10:01:02;;;;;;;;;;;;;;;25.75;49.39;97727.41;5140501;28;20022;-74
2023/06/18 10:03:28;;;;;;;;;;;;;;;25.80;48.39;97741.94;5133564;28;20017;-74
2023/06/18 10:05:54;;;;;;;;;;;;;;;25.84;46.06;97727.19;5140651;28;19959;-73
2023/06/18 10:08:21;;;;;;;;;;;;;;;25.90;44.41;97725.72;5125827;28;19958;-73
2023/06/18 10:10:48;;;;;;;;;;;;;;;26.17;44.63;97729.25;5143678;28;19925;-73
2023/06/18 10:13:16;;;;;;;;;;;;;;;26.07;44.52;97725.19;5140231;28;19930;-74
2023/06/18 10:15:42;;;;;;;;;;;;;;;26.16;44.10;97722.19;5140155;28;19931;-74
2023/06/18 10:18:10;;;;;;;;;;;;;;;26.26;44.48;97721.56;5142638;28;19923;-74
2023/06/18 10:20:37;;;;;;;;;;;;;;;26.26;44.74;97719.63;5143625;28;20252;-74
2023/06/18 10:23:06;;;;;;;;;;;;;;;26.52;41.83;97721.50;5141882;28;19930;-76
2023/06/18 10:25:33;;;;;;;;;;;;;;;26.66;40.05;97726.41;5140294;28;19934;-73
2023/06/18 10:27:59;;;;;;;;;;;;;;;26.75;40.39;97718.69;5141576;28;19924;-73
2023/06/18 10:30:28;;;;;;;;;;;;;;;26.60;40.94;97717.72;5143830;28;19957;-74
2023/06/18 10:32:55;;;;;;;;;;;;;;;26.52;41.50;97713.28;5143114;28;19966;-74
2023/06/18 10:35:21;;;;;;;;;;;;;;;26.42;41.83;97710.44;5139932;28;19927;-74
2023/06/18 10:37:48;;;;;;;;;;;;;;;26.42;41.94;97703.00;5139933;28;19995;-74
2023/06/18 10:40:14;;;;;;;;;;;;;;;26.52;42.59;97704.31;5142753;28;19972;-74
2023/06/18 10:42:41;;;;;;;;;;;;;;;26.72;41.95;97700.25;5143362;28;19930;-74
2023/06/18 10:45:11;;;;;;;;;;;;;;;26.65;44.47;97703.69;5141052;28;19931;-74
2023/06/18 10:47:39;;;;;;;;;;;;;;;26.70;42.01;97700.63;5139913;28;19930;-74
2023/06/18 10:50:13;;;;;;;;;;;;;;;26.66;40.43;97696.25;5141728;28;19927;-74
2023/06/18 10:52:40;;;;;;;;;;;;;;;26.62;40.71;97685.25;5143673;28;19924;-74
2023/06/18 10:55:07;;;;;;;;;;;;;;;26.56;41.79;97694.19;5141465;28;19919;-74
2023/06/18 10:57:36;;;;;;;;;;;;;;;26.73;42.58;97688.13;5139818;28;19991;-74
2023/06/18 11:00:15;;;;;;;;;;;;;;;26.88;42.26;97689.13;5141347;28;19939;-73
2023/06/18 11:02:43;;;;;;;;;;;;;;;27.27;40.29;97684.81;5143762;28;19945;-74
2023/06/18 11:05:15;;;;;;;;;;;;;;;27.09;41.71;97681.09;5141079;27;20007;-74
2023/06/18 11:07:41;;;;;;;;;;;;;;;27.03;41.17;97682.63;5143485;27;19954;-74
2023/06/18 11:10:08;;;;;;;;;;;;;;;26.92;41.74;97670.75;5146143;27;19969;-74
2023/06/18 11:12:36;;;;;;;;;;;;;;;26.80;40.34;97675.31;5147180;27;20010;-74
2023/06/18 11:15:06;;;;;;;;;;;;;;;26.79;40.14;97667.47;5145377;27;19931;-75
2023/06/18 11:17:33;;;;;;;;;;;;;;;26.81;41.07;97668.69;5143539;27;19983;-75
2023/06/18 11:20:01;;;;;;;;;;;;;;;27.15;40.35;97666.69;5144223;27;19924;-74
2023/06/18 11:22:28;;;;;;;;;;;;;;;27.31;40.48;97660.97;5147012;27;19926;-75
2023/06/18 11:24:56;;;;;;;;;;;;;;;27.53;39.83;97660.00;5146619;27;19923;-75
2023/06/18 11:27:22;;;;;;;;;;;;;;;27.56;40.49;97658.44;5143374;27;19924;-74
2023/06/18 11:29:49;;;;;;;;;;;;;;;27.48;41.03;97657.59;5143181;27;19966;-74
2023/06/18 11:32:16;;;;;;;;;;;;;;;27.41;40.92;97652.03;5146393;27;19987;-74
2023/06/18 11:34:42;;;;;;;;;;;;;;;27.59;40.47;97655.75;5146443;27;19923;-75
2023/06/18 11:37:11;;;;;;;;;;;;;;;27.50;41.41;97655.28;5143792;27;19927;-74
2023/06/18 11:39:40;;;;;;;;;;;;;;;27.47;41.14;97639.59;5143052;27;19932;-75
2023/06/18 11:42:13;;;;;;;;;;;;;;;27.73;40.91;97646.84;5144666;27;20023;-75
2023/06/18 11:44:45;;;;;;;;;;;;;;;27.72;40.58;97640.56;5146592;27;19927;-75
2023/06/18 11:47:11;;;;;;;;;;;;;;;27.33;42.27;97644.91;5143767;27;19959;-74
2023/06/18 11:49:38;;;;;;;;;;;;;;;27.64;41.17;97644.41;5142739;27;19983;-75
2023/06/18 11:52:04;;;;;;;;;;;;;;;27.55;42.47;97645.91;5144328;27;20098;-73
2023/06/18 11:54:34;;;;;;;;;;;;;;;27.64;41.45;97638.13;5146282;27;19979;-75
2023/06/18 11:57:01;;;;;;;;;;;;;;;27.50;41.51;97643.50;5145077;27;20542;-74
2023/06/18 11:59:27;;;;;;;;;;;;;;;27.64;40.45;97638.91;5142471;27;19928;-73
2023/06/18 12:01:54;;;;;;;;;;;;;;;27.66;40.49;97633.06;5142641;27;20014;-74
2023/06/18 12:04:20;;;;;;;;;;;;;;;27.61;41.08;97623.22;5145937;27;19934;-75
2023/06/18 12:06:47;;;;;;;;;;;;;;;27.87;40.80;97630.44;5145689;27;20406;-74
2023/06/18 12:09:13;;;;;;;;;;;;;;;28.05;39.25;97634.13;5142462;27;19973;-74
2023/06/18 12:11:47;;;;;;;;;;;;;;;27.92;40.32;97629.28;5142208;27;19959;-74
2023/06/18 12:14:18;;;;;;;;;;;;;;;27.86;41.49;97629.66;5144874;27;19931;-74
2023/06/18 12:16:49;;;;;;;;;;;;;;;28.21;40.80;97629.09;5144983;27;19923;-74
2023/06/18 12:19:16;;;;;;;;;;;;;;;28.13;41.63;97619.25;5141664;27;19931;-75
2023/06/18 12:21:42;;;;;;;;;;;;;;;28.06;39.27;97621.19;5141800;27;19949;-74
2023/06/18 12:24:09;;;;;;;;;;;;;;;28.01;41.10;97616.03;5144299;27;19935;-73
2023/06/18 12:26:35;;;;;;;;;;;;;;;28.32;39.71;97615.41;5146115;27;20019;-74
2023/06/18 12:29:03;;;;;;;;;;;;;;;28.33;39.10;97617.78;5144223;27;19920;-74
2023/06/18 12:31:29;;;;;;;;;;;;;;;27.86;40.72;97618.69;5141725;27;19938;-74
2023/06/18 12:33:56;;;;;;;;;;;;;;;28.14;41.09;97615.34;5142220;27;19924;-75
2023/06/18 12:36:26;;;;;;;;;;;;;;;27.98;41.62;97620.31;5145563;27;19923;-74
2023/06/18 12:38:52;;;;;;;;;;;;;;;28.00;41.89;97606.22;5145312;27;19934;-74
2023/06/18 12:41:23;;;;;;;;;;;;;;;28.33;39.27;97617.00;5141878;27;19924;-74
2023/06/18 12:43:49;;;;;;;;;;;;;;;28.34;38.71;97607.59;5141943;27;19924;-74
2023/06/18 12:46:25;;;;;;;;;;;;;;;28.14;41.43;97595.31;5144981;27;19919;-74
2023/06/18 12:48:52;;;;;;;;;;;;;;;28.34;40.64;97600.13;5145375;27;19924;-74